createdAt,value
2019-01-14T00:00:26.710Z,8.77
2019-01-14T00:01:31.785Z,8.71
2019-01-14T00:02:36.916Z,8.61
2019-01-14T00:03:42.188Z,8.52
2019-01-14T00:04:47.639Z,8.46
2019-01-14T00:05:54.398Z,8.42
2019-01-14T00:06:59.324Z,8.38
2019-01-14T00:08:04.739Z,8.36
2019-01-14T00:09:10.005Z,8.32
2019-01-14T00:10:15.155Z,8.29
2019-01-14T00:11:20.541Z,8.25
2019-01-14T00:12:25.916Z,8.23
2019-01-14T00:13:31.264Z,8.20
2019-01-14T00:14:36.259Z,8.14
2019-01-14T00:15:41.345Z,8.11
2019-01-14T00:16:46.357Z,8.07
2019-01-14T00:17:51.418Z,8.01
2019-01-14T00:18:56.525Z,7.96
2019-01-14T00:20:01.464Z,7.93
2019-01-14T00:21:07.004Z,7.90
2019-01-14T00:22:12.090Z,7.84
2019-01-14T00:23:17.364Z,7.82
2019-01-14T00:24:22.995Z,7.78
2019-01-14T00:25:28.212Z,7.77
2019-01-14T00:26:33.285Z,7.75
2019-01-14T00:27:38.582Z,7.73
2019-01-14T00:28:43.769Z,7.73
2019-01-14T00:29:48.765Z,7.73
2019-01-14T00:30:54.172Z,7.74
2019-01-14T00:31:59.377Z,7.73
2019-01-14T00:33:04.456Z,7.72
2019-01-14T00:34:09.631Z,7.73
2019-01-14T00:35:14.727Z,7.74
2019-01-14T00:36:19.929Z,7.73
2019-01-14T00:37:24.972Z,7.71
2019-01-14T00:38:29.898Z,7.69
2019-01-14T00:39:34.973Z,7.68
2019-01-14T00:40:40.357Z,7.68
2019-01-14T00:41:45.285Z,7.65
2019-01-14T00:42:50.228Z,7.64
2019-01-14T00:43:55.462Z,7.64
2019-01-14T00:45:02.636Z,7.64
2019-01-14T00:46:07.719Z,7.63
2019-01-14T00:47:12.755Z,7.64
2019-01-14T00:48:18.817Z,7.66
2019-01-14T00:49:23.777Z,7.66
2019-01-14T00:50:29.072Z,7.67
2019-01-14T00:51:34.489Z,7.71
2019-01-14T00:52:40.031Z,7.73
2019-01-14T00:53:45.380Z,7.75
2019-01-14T00:54:50.313Z,7.78
2019-01-14T00:55:55.218Z,7.79
2019-01-14T00:57:00.163Z,7.80
2019-01-14T00:58:05.332Z,7.82
2019-01-14T00:59:10.382Z,7.84
2019-01-14T01:00:18.703Z,7.86
2019-01-14T01:01:24.041Z,7.88
2019-01-14T01:02:29.413Z,7.90
2019-01-14T01:03:34.854Z,7.93
2019-01-14T01:04:40.241Z,7.95
2019-01-14T01:05:45.326Z,7.97
2019-01-14T01:06:50.352Z,8.00
2019-01-14T01:07:55.425Z,8.03
2019-01-14T01:09:00.506Z,8.05
2019-01-14T01:10:06.643Z,8.05
2019-01-14T01:11:12.144Z,8.05
2019-01-14T01:12:17.237Z,8.07
2019-01-14T01:13:22.528Z,8.09
2019-01-14T01:14:27.849Z,8.11
2019-01-14T01:15:32.853Z,8.10
2019-01-14T01:16:38.491Z,8.10
2019-01-14T01:17:43.806Z,8.09
2019-01-14T01:18:49.069Z,8.09
2019-01-14T01:19:54.072Z,8.08
2019-01-14T01:20:59.590Z,8.07
2019-01-14T01:22:05.018Z,8.07
2019-01-14T01:23:10.085Z,8.08
2019-01-14T01:24:15.384Z,8.07
2019-01-14T01:25:20.723Z,8.07
2019-01-14T01:26:25.697Z,8.06
2019-01-14T01:27:30.973Z,8.05
2019-01-14T01:28:36.597Z,8.04
2019-01-14T01:29:41.633Z,8.02
2019-01-14T01:30:46.584Z,8.01
2019-01-14T01:31:51.541Z,7.99
2019-01-14T01:32:56.482Z,7.99
2019-01-14T01:34:01.507Z,7.98
2019-01-14T01:35:08.329Z,7.97
2019-01-14T01:36:13.519Z,7.96
2019-01-14T01:37:18.474Z,7.94
2019-01-14T01:38:23.416Z,7.93
2019-01-14T01:39:28.415Z,7.92
2019-01-14T01:40:33.607Z,7.90
2019-01-14T01:41:38.624Z,7.88
2019-01-14T01:42:44.291Z,7.86
2019-01-14T01:43:49.212Z,7.85
2019-01-14T01:44:54.606Z,7.84
2019-01-14T01:45:59.763Z,7.84
2019-01-14T01:47:05.925Z,7.84
2019-01-14T01:48:11.009Z,7.84
2019-01-14T01:49:16.229Z,7.84
2019-01-14T01:50:21.569Z,7.84
2019-01-14T01:51:26.833Z,7.83
2019-01-14T01:52:31.852Z,7.84
2019-01-14T01:53:36.802Z,7.83
2019-01-14T01:54:41.703Z,7.83
2019-01-14T01:55:46.634Z,7.83
2019-01-14T01:56:51.972Z,7.82
2019-01-14T01:57:57.325Z,7.83
2019-01-14T01:59:02.418Z,7.85
2019-01-14T02:00:10.316Z,7.88
2019-01-14T02:01:15.250Z,7.91
2019-01-14T02:02:20.646Z,7.94
2019-01-14T02:03:26.223Z,7.97
2019-01-14T02:04:31.598Z,8.01
2019-01-14T02:05:36.530Z,8.04
2019-01-14T02:06:41.878Z,8.07
2019-01-14T02:07:47.158Z,8.10
2019-01-14T02:08:52.228Z,8.13
2019-01-14T02:09:57.253Z,8.16
2019-01-14T02:11:02.340Z,8.19
2019-01-14T02:12:07.336Z,8.20
2019-01-14T02:13:12.254Z,8.20
2019-01-14T02:14:17.680Z,8.21
2019-01-14T02:15:23.250Z,8.22
2019-01-14T02:16:28.559Z,8.23
2019-01-14T02:17:33.568Z,8.24
2019-01-14T02:18:38.580Z,8.25
2019-01-14T02:19:43.590Z,8.27
2019-01-14T02:20:48.612Z,8.29
2019-01-14T02:21:53.683Z,8.31
2019-01-14T02:22:59.007Z,8.33
2019-01-14T02:24:04.461Z,8.33
2019-01-14T02:25:10.052Z,8.33
2019-01-14T02:26:15.083Z,8.34
2019-01-14T02:27:20.730Z,8.34
2019-01-14T02:28:26.980Z,8.34
2019-01-14T02:29:31.922Z,8.36
2019-01-14T02:30:37.315Z,8.34
2019-01-14T02:31:42.716Z,8.32
2019-01-14T02:32:48.392Z,8.29
2019-01-14T02:33:53.500Z,8.26
2019-01-14T02:34:58.435Z,8.27
2019-01-14T02:36:04.303Z,8.25
2019-01-14T02:37:09.250Z,8.24
2019-01-14T02:38:14.542Z,8.23
2019-01-14T02:39:19.491Z,8.22
2019-01-14T02:40:24.500Z,8.20
2019-01-14T02:41:29.738Z,8.19
2019-01-14T02:42:35.064Z,8.18
2019-01-14T02:43:40.153Z,8.17
2019-01-14T02:44:45.454Z,8.17
2019-01-14T02:45:50.388Z,8.19
2019-01-14T02:46:55.357Z,8.18
2019-01-14T02:48:00.382Z,8.19
2019-01-14T02:49:06.660Z,8.17
2019-01-14T02:50:12.306Z,8.16
2019-01-14T02:51:17.338Z,8.17
2019-01-14T02:52:22.361Z,8.18
2019-01-14T02:53:27.288Z,8.19
2019-01-14T02:54:32.246Z,8.19
2019-01-14T02:55:37.513Z,8.19
2019-01-14T02:56:42.706Z,8.22
2019-01-14T02:57:47.699Z,8.22
2019-01-14T02:58:52.643Z,8.24
2019-01-14T02:59:58.265Z,8.24
2019-01-14T03:01:06.939Z,8.24
2019-01-14T03:02:10.741Z,8.25
2019-01-14T03:03:15.683Z,8.27
2019-01-14T03:04:20.909Z,8.25
2019-01-14T03:05:26.919Z,8.26
2019-01-14T03:06:32.663Z,8.26
2019-01-14T03:07:38.262Z,8.25
2019-01-14T03:08:43.193Z,8.26
2019-01-14T03:09:48.157Z,8.27
2019-01-14T03:10:53.587Z,8.29
2019-01-14T03:11:58.577Z,8.28
2019-01-14T03:13:04.390Z,8.29
2019-01-14T03:14:09.318Z,8.29
2019-01-14T03:15:15.798Z,8.30
2019-01-14T03:16:20.724Z,8.31
2019-01-14T03:17:26.199Z,8.32
2019-01-14T03:18:31.768Z,8.32
2019-01-14T03:19:37.115Z,8.33
2019-01-14T03:20:42.088Z,8.34
2019-01-14T03:21:47.027Z,8.34
2019-01-14T03:22:52.143Z,8.35
2019-01-14T03:23:57.770Z,8.37
2019-01-14T03:25:02.779Z,8.38
2019-01-14T03:26:07.722Z,8.38
2019-01-14T03:27:12.713Z,8.41
2019-01-14T03:28:18.181Z,8.40
2019-01-14T03:29:23.446Z,8.41
2019-01-14T03:30:28.430Z,8.41
2019-01-14T03:31:34.005Z,8.42
2019-01-14T03:32:38.993Z,8.40
2019-01-14T03:33:44.163Z,8.40
2019-01-14T03:34:49.453Z,8.40
2019-01-14T03:35:54.731Z,8.38
2019-01-14T03:37:05.471Z,8.38
2019-01-14T03:38:06.609Z,8.36
2019-01-14T03:39:11.665Z,8.36
2019-01-14T03:40:18.231Z,8.37
2019-01-14T03:41:23.138Z,8.38
2019-01-14T03:42:28.327Z,8.38
2019-01-14T03:43:33.303Z,8.38
2019-01-14T03:44:38.891Z,8.39
2019-01-14T03:45:43.856Z,8.40
2019-01-14T03:46:49.115Z,8.40
2019-01-14T03:47:54.051Z,8.40
2019-01-14T03:48:59.232Z,8.41
2019-01-14T03:50:05.757Z,8.42
2019-01-14T03:51:11.921Z,8.42
2019-01-14T03:52:16.841Z,8.42
2019-01-14T03:53:22.136Z,8.40
2019-01-14T03:54:28.154Z,8.39
2019-01-14T03:55:33.956Z,8.36
2019-01-14T03:56:39.053Z,8.36
2019-01-14T03:57:44.706Z,8.33
2019-01-14T03:58:49.806Z,8.30
2019-01-14T03:59:54.858Z,8.27
2019-01-14T04:00:59.886Z,8.24
2019-01-14T04:02:05.329Z,8.23
2019-01-14T04:03:11.064Z,8.21
2019-01-14T04:04:16.360Z,8.19
2019-01-14T04:05:21.441Z,8.17
2019-01-14T04:06:26.668Z,8.15
2019-01-14T04:07:31.699Z,8.13
2019-01-14T04:08:36.979Z,8.12
2019-01-14T04:09:41.925Z,8.11
2019-01-14T04:10:46.970Z,8.09
2019-01-14T04:11:51.996Z,8.09
2019-01-14T04:12:57.229Z,8.08
2019-01-14T04:14:02.510Z,8.08
2019-01-14T04:15:08.635Z,8.06
2019-01-14T04:16:15.787Z,8.06
2019-01-14T04:17:20.727Z,8.05
2019-01-14T04:18:26.425Z,8.06
2019-01-14T04:19:31.377Z,8.07
2019-01-14T04:20:36.445Z,8.09
2019-01-14T04:21:41.381Z,8.09
2019-01-14T04:22:46.617Z,8.09
2019-01-14T04:23:51.904Z,8.11
2019-01-14T04:24:56.850Z,8.12
2019-01-14T04:26:01.800Z,8.14
2019-01-14T04:27:06.749Z,8.16
2019-01-14T04:28:12.092Z,8.17
2019-01-14T04:29:17.718Z,8.17
2019-01-14T04:30:24.414Z,8.17
2019-01-14T04:31:30.136Z,8.17
2019-01-14T04:32:35.406Z,8.18
2019-01-14T04:33:40.416Z,8.18
2019-01-14T04:34:45.769Z,8.19
2019-01-14T04:35:50.678Z,8.19
2019-01-14T04:36:56.049Z,8.19
2019-01-14T04:38:01.339Z,8.20
2019-01-14T04:39:08.976Z,8.19
2019-01-14T04:40:14.520Z,8.18
2019-01-14T04:41:19.865Z,8.19
2019-01-14T04:42:25.460Z,8.19
2019-01-14T04:43:32.062Z,8.19
2019-01-14T04:44:37.368Z,8.19
2019-01-14T04:45:43.167Z,8.18
2019-01-14T04:46:48.193Z,8.19
2019-01-14T04:47:54.054Z,8.20
2019-01-14T04:48:59.123Z,8.22
2019-01-14T04:50:05.428Z,8.21
2019-01-14T04:51:10.594Z,8.22
2019-01-14T04:52:15.601Z,8.22
2019-01-14T04:53:22.323Z,8.22
2019-01-14T04:54:27.932Z,8.22
2019-01-14T04:55:33.010Z,8.23
2019-01-14T04:56:38.021Z,8.26
2019-01-14T04:57:43.126Z,8.28
2019-01-14T04:58:48.198Z,8.27
2019-01-14T04:59:53.116Z,8.27
2019-01-14T05:00:58.139Z,8.27
2019-01-14T05:02:03.249Z,8.28
2019-01-14T05:03:08.814Z,8.29
2019-01-14T05:04:13.753Z,8.29
2019-01-14T05:05:19.136Z,8.30
2019-01-14T05:06:24.383Z,8.31
2019-01-14T05:07:29.949Z,8.30
2019-01-14T05:08:35.278Z,8.30
2019-01-14T05:09:40.334Z,8.29
2019-01-14T05:10:45.627Z,8.29
2019-01-14T05:11:50.821Z,8.31
2019-01-14T05:12:55.762Z,8.32
2019-01-14T05:14:00.768Z,8.33
2019-01-14T05:15:07.004Z,8.33
2019-01-14T05:16:12.026Z,8.33
2019-01-14T05:17:17.304Z,8.33
2019-01-14T05:18:22.544Z,8.31
2019-01-14T05:19:27.634Z,8.29
2019-01-14T05:20:32.887Z,8.28
2019-01-14T05:21:37.981Z,8.28
2019-01-14T05:22:43.383Z,8.26
2019-01-14T05:23:48.320Z,8.26
2019-01-14T05:24:53.981Z,8.28
2019-01-14T05:25:59.708Z,8.31
2019-01-14T05:27:04.823Z,8.32
2019-01-14T05:28:09.773Z,8.33
2019-01-14T05:29:14.797Z,8.34
2019-01-14T05:30:20.187Z,8.34
2019-01-14T05:31:25.203Z,8.34
2019-01-14T05:32:30.199Z,8.33
2019-01-14T05:33:35.248Z,8.33
2019-01-14T05:34:40.326Z,8.33
2019-01-14T05:35:45.729Z,8.34
2019-01-14T05:36:51.135Z,8.32
2019-01-14T05:37:56.175Z,8.33
2019-01-14T05:39:01.245Z,8.32
2019-01-14T05:40:11.007Z,8.33
2019-01-14T05:41:16.112Z,8.33
2019-01-14T05:42:21.360Z,8.33
2019-01-14T05:43:26.286Z,8.32
2019-01-14T05:44:31.197Z,8.32
2019-01-14T05:45:36.474Z,8.32
2019-01-14T05:46:41.416Z,8.32
2019-01-14T05:47:46.790Z,8.32
2019-01-14T05:48:51.713Z,8.33
2019-01-14T05:49:56.970Z,8.32
2019-01-14T05:51:01.969Z,8.32
2019-01-14T05:52:07.178Z,8.32
2019-01-14T05:53:12.129Z,8.33
2019-01-14T05:54:17.490Z,8.32
2019-01-14T05:55:23.456Z,8.33
2019-01-14T05:56:29.194Z,8.32
2019-01-14T05:57:34.386Z,8.34
2019-01-14T05:58:39.773Z,8.34
2019-01-14T05:59:44.693Z,8.33
2019-01-14T06:00:50.583Z,8.32
2019-01-14T06:01:56.262Z,8.32
2019-01-14T06:03:01.538Z,8.29
2019-01-14T06:04:06.858Z,8.30
2019-01-14T06:05:12.123Z,8.30
2019-01-14T06:06:17.714Z,8.28
2019-01-14T06:07:22.709Z,8.28
2019-01-14T06:08:27.932Z,8.27
2019-01-14T06:09:33.636Z,8.25
2019-01-14T06:10:38.945Z,8.25
2019-01-14T06:11:44.360Z,8.25
2019-01-14T06:12:49.641Z,8.24
2019-01-14T06:13:55.359Z,8.24
2019-01-14T06:15:00.334Z,8.24
2019-01-14T06:16:05.457Z,8.24
2019-01-14T06:17:11.137Z,8.26
2019-01-14T06:18:16.072Z,8.28
2019-01-14T06:19:21.121Z,8.30
2019-01-14T06:20:28.144Z,8.30
2019-01-14T06:21:33.078Z,8.31
2019-01-14T06:22:38.459Z,8.33
2019-01-14T06:23:43.618Z,8.35
2019-01-14T06:24:48.835Z,8.38
2019-01-14T06:25:53.974Z,8.38
2019-01-14T06:26:58.894Z,8.39
2019-01-14T06:28:03.986Z,8.39
2019-01-14T06:29:08.941Z,8.38
2019-01-14T06:30:16.825Z,8.38
2019-01-14T06:31:22.243Z,8.37
2019-01-14T06:32:27.496Z,8.36
2019-01-14T06:33:32.520Z,8.36
2019-01-14T06:34:37.450Z,8.35
2019-01-14T06:35:42.422Z,8.37
2019-01-14T06:36:47.516Z,8.37
2019-01-14T06:37:52.801Z,8.38
2019-01-14T06:38:57.873Z,8.38
2019-01-14T06:40:02.865Z,8.38
2019-01-14T06:41:07.959Z,8.38
2019-01-14T06:42:13.276Z,8.39
2019-01-14T06:43:18.264Z,8.40
2019-01-14T06:44:23.452Z,8.41
2019-01-14T06:45:28.844Z,8.41
2019-01-14T06:46:33.945Z,8.40
2019-01-14T06:47:39.010Z,8.42
2019-01-14T06:48:44.733Z,8.41
2019-01-14T06:49:49.830Z,8.42
2019-01-14T06:50:54.869Z,8.42
2019-01-14T06:51:59.908Z,8.40
2019-01-14T06:53:05.318Z,8.40
2019-01-14T06:54:10.690Z,8.42
2019-01-14T06:55:16.681Z,8.43
2019-01-14T06:56:22.069Z,8.45
2019-01-14T06:57:28.808Z,8.47
2019-01-14T06:58:34.382Z,8.48
2019-01-14T06:59:41.087Z,8.50
2019-01-14T07:00:46.161Z,8.50
2019-01-14T07:01:51.555Z,8.50
2019-01-14T07:02:56.928Z,8.50
2019-01-14T07:04:02.062Z,8.49
2019-01-14T07:05:07.566Z,8.49
2019-01-14T07:06:12.519Z,8.48
2019-01-14T07:07:17.560Z,8.49
2019-01-14T07:08:22.910Z,8.50
2019-01-14T07:09:27.961Z,8.51
2019-01-14T07:10:33.776Z,8.51
2019-01-14T07:11:40.119Z,8.53
2019-01-14T07:12:45.169Z,8.52
2019-01-14T07:13:50.195Z,8.52
2019-01-14T07:14:55.204Z,8.51
2019-01-14T07:16:00.509Z,8.52
2019-01-14T07:17:05.712Z,8.54
2019-01-14T07:18:10.916Z,8.57
2019-01-14T07:19:16.012Z,8.58
2019-01-14T07:20:21.546Z,8.55
2019-01-14T07:21:26.510Z,8.48
2019-01-14T07:22:31.533Z,8.42
2019-01-14T07:23:36.574Z,8.33
2019-01-14T07:24:41.793Z,8.25
2019-01-14T07:25:47.443Z,8.18
2019-01-14T07:26:53.005Z,8.12
2019-01-14T07:27:58.814Z,8.05
2019-01-14T07:29:04.112Z,7.97
2019-01-14T07:30:12.527Z,7.91
2019-01-14T07:31:17.640Z,7.85
2019-01-14T07:32:22.749Z,7.81
2019-01-14T07:33:27.840Z,7.80
2019-01-14T07:34:32.965Z,7.77
2019-01-14T07:35:38.371Z,7.73
2019-01-14T07:36:43.512Z,7.69
2019-01-14T07:37:48.933Z,7.67
2019-01-14T07:38:54.173Z,7.63
2019-01-14T07:39:59.161Z,7.59
2019-01-14T07:41:04.610Z,7.59
2019-01-14T07:42:10.222Z,7.58
2019-01-14T07:43:15.168Z,7.57
2019-01-14T07:44:20.144Z,7.57
2019-01-14T07:45:25.144Z,7.56
2019-01-14T07:46:30.981Z,7.58
2019-01-14T07:47:35.990Z,7.59
2019-01-14T07:48:41.051Z,7.62
2019-01-14T07:49:46.099Z,7.64
2019-01-14T07:50:51.054Z,7.67
2019-01-14T07:51:56.631Z,7.67
2019-01-14T07:53:01.767Z,7.68
2019-01-14T07:54:06.894Z,7.68
2019-01-14T07:55:11.991Z,7.68
2019-01-14T07:56:17.146Z,7.67
2019-01-14T07:57:22.256Z,7.65
2019-01-14T07:58:27.365Z,7.65
2019-01-14T07:59:32.573Z,7.63
2019-01-14T08:00:37.588Z,7.64
2019-01-14T08:01:42.859Z,7.63
2019-01-14T08:02:48.174Z,7.60
2019-01-14T08:03:53.545Z,7.59
2019-01-14T08:04:58.484Z,7.57
2019-01-14T08:06:03.590Z,7.55
2019-01-14T08:07:08.516Z,7.55
2019-01-14T08:08:14.232Z,7.51
2019-01-14T08:09:19.726Z,7.48
2019-01-14T08:10:24.793Z,7.46
2019-01-14T08:11:29.823Z,7.45
2019-01-14T08:12:34.785Z,7.45
2019-01-14T08:13:39.792Z,7.43
2019-01-14T08:14:44.831Z,7.43
2019-01-14T08:15:50.128Z,7.42
2019-01-14T08:16:55.406Z,7.39
2019-01-14T08:18:00.404Z,7.37
2019-01-14T08:19:05.733Z,7.36
2019-01-14T08:20:11.197Z,7.34
2019-01-14T08:21:16.206Z,7.34
2019-01-14T08:22:21.835Z,7.34
2019-01-14T08:23:26.784Z,7.32
2019-01-14T08:24:31.824Z,7.30
2019-01-14T08:25:37.540Z,7.28
2019-01-14T08:26:42.692Z,7.26
2019-01-14T08:27:47.942Z,7.23
2019-01-14T08:28:52.951Z,7.21
2019-01-14T08:29:57.999Z,7.18
2019-01-14T08:31:03.035Z,7.15
2019-01-14T08:32:08.042Z,7.14
2019-01-14T08:33:13.351Z,7.12
2019-01-14T08:34:18.550Z,7.10
2019-01-14T08:35:23.557Z,7.10
2019-01-14T08:36:28.658Z,7.11
2019-01-14T08:37:33.986Z,7.11
2019-01-14T08:38:39.617Z,7.13
2019-01-14T08:39:44.709Z,7.13
2019-01-14T08:40:50.008Z,7.15
2019-01-14T08:42:00.331Z,7.16
2019-01-14T08:43:05.421Z,7.16
2019-01-14T08:44:10.847Z,7.14
2019-01-14T08:45:15.910Z,7.14
2019-01-14T08:46:21.625Z,7.13
2019-01-14T08:47:27.448Z,7.12
2019-01-14T08:48:32.769Z,7.12
2019-01-14T08:49:37.760Z,7.13
2019-01-14T08:50:42.850Z,7.14
2019-01-14T08:51:47.791Z,7.15
2019-01-14T08:52:52.987Z,7.16
2019-01-14T08:53:58.146Z,7.14
2019-01-14T08:55:03.768Z,7.13
2019-01-14T08:56:08.861Z,7.12
2019-01-14T08:57:13.962Z,7.12
2019-01-14T08:58:18.928Z,7.12
2019-01-14T08:59:23.847Z,7.12
2019-01-14T09:00:28.932Z,7.14
2019-01-14T09:01:34.925Z,7.16
2019-01-14T09:02:40.346Z,7.19
2019-01-14T09:03:45.351Z,7.19
2019-01-14T09:04:50.840Z,7.20
2019-01-14T09:05:56.234Z,7.22
2019-01-14T09:07:01.433Z,7.22
2019-01-14T09:08:06.393Z,7.23
2019-01-14T09:09:11.734Z,7.20
2019-01-14T09:10:20.022Z,7.21
2019-01-14T09:11:25.108Z,7.22
2019-01-14T09:12:30.422Z,7.25
2019-01-14T09:13:35.348Z,7.27
2019-01-14T09:14:40.770Z,7.30
2019-01-14T09:15:47.369Z,7.31
2019-01-14T09:16:52.410Z,7.32
2019-01-14T09:18:02.610Z,7.32
2019-01-14T09:19:04.773Z,7.33
2019-01-14T09:20:15.928Z,7.36
2019-01-14T09:21:21.198Z,7.37
2019-01-14T09:22:26.770Z,7.38
2019-01-14T09:23:31.690Z,7.38
2019-01-14T09:24:36.694Z,7.38
2019-01-14T09:25:41.637Z,7.37
2019-01-14T09:26:46.649Z,7.33
2019-01-14T09:27:51.746Z,7.32
2019-01-14T09:28:56.807Z,7.31
2019-01-14T09:30:02.104Z,7.32
2019-01-14T09:31:07.658Z,7.31
2019-01-14T09:32:12.706Z,7.30
2019-01-14T09:33:17.794Z,7.28
2019-01-14T09:34:23.128Z,7.27
2019-01-14T09:35:28.222Z,7.25
2019-01-14T09:36:33.339Z,7.25
2019-01-14T09:37:38.424Z,7.24
2019-01-14T09:38:43.350Z,7.22
2019-01-14T09:39:48.365Z,7.21
2019-01-14T09:40:53.719Z,7.20
2019-01-14T09:41:58.780Z,7.22
2019-01-14T09:43:03.774Z,7.22
2019-01-14T09:44:08.804Z,7.22
2019-01-14T09:45:14.389Z,7.22
2019-01-14T09:46:19.794Z,7.24
2019-01-14T09:47:24.848Z,7.25
2019-01-14T09:48:29.917Z,7.28
2019-01-14T09:49:35.256Z,7.31
2019-01-14T09:50:40.748Z,7.33
2019-01-14T09:51:45.754Z,7.38
2019-01-14T09:52:50.879Z,7.41
2019-01-14T09:53:56.516Z,7.45
2019-01-14T09:55:05.651Z,7.51
2019-01-14T09:56:08.964Z,7.55
2019-01-14T09:57:14.339Z,7.59
2019-01-14T09:58:19.577Z,7.64
2019-01-14T09:59:25.105Z,7.66
2019-01-14T10:00:30.035Z,7.69
2019-01-14T10:01:35.140Z,7.70
2019-01-14T10:02:41.042Z,7.71
2019-01-14T10:03:47.036Z,7.71
2019-01-14T10:04:52.085Z,7.71
2019-01-14T10:05:57.335Z,7.72
2019-01-14T10:07:02.811Z,7.71
2019-01-14T10:08:08.139Z,7.71
2019-01-14T10:09:13.223Z,7.71
2019-01-14T10:10:19.625Z,7.70
2019-01-14T10:11:24.547Z,7.68
2019-01-14T10:12:29.706Z,7.67
2019-01-14T10:13:34.709Z,7.65
2019-01-14T10:14:39.784Z,7.64
2019-01-14T10:15:44.925Z,7.63
2019-01-14T10:16:50.291Z,7.64
2019-01-14T10:17:59.706Z,7.65
2019-01-14T10:19:05.482Z,7.66
2019-01-14T10:20:11.332Z,7.67
2019-01-14T10:21:16.570Z,7.71
2019-01-14T10:22:21.696Z,7.76
2019-01-14T10:23:27.402Z,7.81
2019-01-14T10:24:32.343Z,7.84
2019-01-14T10:25:37.964Z,7.88
2019-01-14T10:26:42.989Z,7.91
2019-01-14T10:27:48.010Z,7.95
2019-01-14T10:28:52.946Z,8.00
2019-01-14T10:29:57.883Z,8.04
2019-01-14T10:31:02.969Z,8.10
2019-01-14T10:32:08.385Z,8.13
2019-01-14T10:33:13.659Z,8.16
2019-01-14T10:34:18.753Z,8.18
2019-01-14T10:35:23.838Z,8.18
2019-01-14T10:36:28.918Z,8.19
2019-01-14T10:37:36.031Z,8.22
2019-01-14T10:38:41.714Z,8.28
2019-01-14T10:39:46.729Z,8.32
2019-01-14T10:40:51.834Z,8.31
2019-01-14T10:41:56.838Z,8.28
2019-01-14T10:43:01.979Z,8.18
2019-01-14T10:44:07.049Z,8.06
2019-01-14T10:45:18.217Z,7.88
2019-01-14T10:46:23.309Z,7.63
2019-01-14T10:47:28.344Z,7.42
2019-01-14T10:48:33.603Z,7.28
2019-01-14T10:49:38.572Z,7.17
2019-01-14T10:50:43.553Z,7.08
2019-01-14T10:51:48.818Z,7.00
2019-01-14T10:52:54.216Z,6.93
2019-01-14T10:53:59.225Z,6.88
2019-01-14T10:55:12.107Z,6.84
2019-01-14T10:56:12.373Z,6.81
2019-01-14T10:57:17.463Z,6.76
2019-01-14T10:58:22.535Z,6.73
2019-01-14T10:59:27.536Z,6.71
2019-01-14T11:00:32.585Z,6.69
2019-01-14T11:01:37.761Z,6.66
2019-01-14T11:02:47.951Z,6.60
2019-01-14T11:03:51.923Z,6.58
2019-01-14T11:04:57.081Z,6.56
2019-01-14T11:06:03.325Z,6.55
2019-01-14T11:07:08.476Z,6.54
2019-01-14T11:08:13.505Z,6.55
2019-01-14T11:09:18.551Z,6.57
2019-01-14T11:10:24.135Z,6.58
2019-01-14T11:11:29.407Z,6.60
2019-01-14T11:12:34.574Z,6.63
2019-01-14T11:13:39.938Z,6.66
2019-01-14T11:14:44.971Z,6.66
2019-01-14T11:15:49.983Z,6.69
2019-01-14T11:16:55.409Z,6.71
2019-01-14T11:18:00.753Z,6.71
2019-01-14T11:19:05.993Z,6.70
2019-01-14T11:20:17.172Z,6.71
2019-01-14T11:21:22.293Z,6.72
2019-01-14T11:22:27.234Z,6.72
2019-01-14T11:23:32.237Z,6.74
2019-01-14T11:24:50.326Z,6.74
2019-01-14T11:25:55.423Z,6.76
2019-01-14T11:27:00.506Z,6.81
2019-01-14T11:28:06.262Z,6.84
2019-01-14T11:29:11.345Z,6.88
2019-01-14T11:30:20.001Z,6.93
2019-01-14T11:31:25.035Z,6.98
2019-01-14T11:32:30.401Z,7.03
2019-01-14T11:33:39.340Z,7.08
2019-01-14T11:34:46.662Z,7.09
2019-01-14T11:35:51.620Z,7.10
2019-01-14T11:36:56.552Z,7.11
2019-01-14T11:38:01.992Z,7.09
2019-01-14T11:39:16.633Z,7.09
2019-01-14T11:40:24.296Z,7.06
2019-01-14T11:41:29.323Z,7.05
2019-01-14T11:42:34.609Z,7.03
2019-01-14T11:43:40.889Z,7.02
2019-01-14T11:44:46.184Z,6.99
2019-01-14T11:45:51.399Z,6.99
2019-01-14T11:46:56.398Z,6.98
2019-01-14T11:48:01.501Z,6.96
2019-01-14T11:49:06.530Z,6.96
2019-01-14T11:50:13.407Z,6.96
2019-01-14T11:51:18.469Z,6.96
2019-01-14T11:52:23.451Z,6.95
2019-01-14T11:53:28.457Z,6.95
2019-01-14T11:54:33.457Z,6.96
2019-01-14T11:55:38.703Z,6.99
2019-01-14T11:56:44.043Z,7.02
2019-01-14T11:57:49.361Z,7.04
2019-01-14T11:58:55.020Z,7.07
2019-01-14T11:59:59.971Z,7.11
2019-01-14T12:01:05.900Z,7.13
2019-01-14T12:02:11.056Z,7.15
2019-01-14T12:03:16.129Z,7.19
2019-01-14T12:04:21.087Z,7.23
2019-01-14T12:05:26.183Z,7.28
2019-01-14T12:06:31.618Z,7.32
2019-01-14T12:07:36.832Z,7.34
2019-01-14T12:08:42.959Z,7.36
2019-01-14T12:09:47.992Z,7.39
2019-01-14T12:10:53.300Z,7.40
2019-01-14T12:11:58.554Z,7.41
2019-01-14T12:13:03.577Z,7.43
2019-01-14T12:14:09.014Z,7.48
2019-01-14T12:15:17.510Z,7.52
2019-01-14T12:16:22.819Z,7.57
2019-01-14T12:17:27.899Z,7.63
2019-01-14T12:18:33.070Z,7.66
2019-01-14T12:19:38.072Z,7.70
2019-01-14T12:20:43.494Z,7.76
2019-01-14T12:21:48.753Z,7.78
2019-01-14T12:22:53.928Z,7.82
2019-01-14T12:23:58.992Z,7.85
2019-01-14T12:25:05.340Z,7.86
2019-01-14T12:26:10.317Z,7.87
2019-01-14T12:27:15.759Z,7.86
2019-01-14T12:28:21.099Z,7.84
2019-01-14T12:29:26.173Z,7.81
2019-01-14T12:30:34.436Z,7.77
2019-01-14T12:31:39.547Z,7.76
2019-01-14T12:32:44.577Z,7.73
2019-01-14T12:33:49.563Z,7.72
2019-01-14T12:34:54.631Z,7.71
2019-01-14T12:35:59.921Z,7.71
2019-01-14T12:37:05.114Z,7.71
2019-01-14T12:38:10.173Z,7.74
2019-01-14T12:39:19.523Z,7.77
2019-01-14T12:40:25.010Z,7.78
2019-01-14T12:41:29.389Z,7.80
2019-01-14T12:42:34.669Z,7.78
2019-01-14T12:43:39.786Z,7.79
2019-01-14T12:44:44.857Z,7.80
2019-01-14T12:45:49.779Z,7.81
2019-01-14T12:46:54.859Z,7.82
2019-01-14T12:48:00.628Z,7.83
2019-01-14T12:49:05.858Z,7.85
2019-01-14T12:50:12.708Z,7.88
2019-01-14T12:51:17.734Z,7.90
2019-01-14T12:52:22.741Z,7.93
2019-01-14T12:53:28.238Z,7.93
2019-01-14T12:54:33.662Z,7.95
2019-01-14T12:55:38.669Z,7.95
2019-01-14T12:56:43.921Z,7.95
2019-01-14T12:57:49.148Z,7.96
2019-01-14T12:58:54.242Z,7.95
2019-01-14T12:59:59.287Z,7.95
2019-01-14T13:01:04.375Z,7.93
2019-01-14T13:02:09.655Z,7.80
2019-01-14T13:03:14.770Z,7.22
2019-01-14T13:04:20.137Z,6.59
2019-01-14T13:05:26.529Z,6.09
2019-01-14T13:06:31.614Z,5.74
2019-01-14T13:07:37.610Z,5.49
2019-01-14T13:08:43.547Z,5.35
2019-01-14T13:09:48.770Z,5.27
2019-01-14T13:10:54.472Z,5.22
2019-01-14T13:11:59.518Z,5.20
2019-01-14T13:13:04.602Z,5.20
2019-01-14T13:14:09.696Z,5.23
2019-01-14T13:15:17.175Z,5.25
2019-01-14T13:16:22.162Z,5.27
2019-01-14T13:17:27.250Z,5.26
2019-01-14T13:18:32.567Z,5.27
2019-01-14T13:19:37.574Z,5.28
2019-01-14T13:20:42.876Z,5.28
2019-01-14T13:21:48.237Z,5.30
2019-01-14T13:22:53.340Z,5.35
2019-01-14T13:23:58.424Z,5.38
2019-01-14T13:25:04.211Z,5.40
2019-01-14T13:26:09.318Z,5.43
2019-01-14T13:27:14.410Z,5.46
2019-01-14T13:28:19.401Z,5.47
2019-01-14T13:29:24.748Z,5.48
2019-01-14T13:30:31.075Z,5.50
2019-01-14T13:31:36.139Z,5.51
2019-01-14T13:32:41.132Z,5.51
2019-01-14T13:33:46.264Z,5.54
2019-01-14T13:34:51.338Z,5.58
2019-01-14T13:35:56.302Z,5.58
2019-01-14T13:37:02.248Z,5.59
2019-01-14T13:38:08.650Z,5.59
2019-01-14T13:39:14.514Z,5.62
2019-01-14T13:40:19.821Z,5.62
2019-01-14T13:41:25.383Z,5.63
2019-01-14T13:42:30.395Z,5.66
2019-01-14T13:43:35.409Z,5.66
2019-01-14T13:44:40.347Z,5.70
2019-01-14T13:45:45.452Z,5.69
2019-01-14T13:46:50.858Z,5.69
2019-01-14T13:47:55.927Z,5.70
2019-01-14T13:49:00.861Z,5.70
2019-01-14T13:50:07.284Z,5.72
2019-01-14T13:51:12.333Z,5.72
2019-01-14T13:52:17.627Z,5.75
2019-01-14T13:53:22.682Z,5.78
2019-01-14T13:54:28.076Z,5.83
2019-01-14T13:55:33.319Z,5.84
2019-01-14T13:56:38.623Z,5.89
2019-01-14T13:57:44.219Z,5.92
2019-01-14T13:58:49.191Z,5.93
2019-01-14T13:59:54.477Z,5.96
2019-01-14T14:01:00.421Z,5.98
2019-01-14T14:02:05.775Z,5.98
2019-01-14T14:03:10.708Z,6.00
2019-01-14T14:04:15.778Z,6.00
2019-01-14T14:05:20.836Z,6.02
2019-01-14T14:06:25.837Z,6.02
2019-01-14T14:07:30.848Z,6.02
2019-01-14T14:08:35.792Z,6.03
2019-01-14T14:09:41.479Z,6.04
2019-01-14T14:10:47.881Z,6.03
2019-01-14T14:11:52.969Z,6.03
2019-01-14T14:12:58.152Z,6.04
2019-01-14T14:14:03.333Z,6.04
2019-01-14T14:15:09.341Z,6.05
2019-01-14T14:16:14.548Z,6.05
2019-01-14T14:17:19.624Z,6.07
2019-01-14T14:18:24.600Z,6.07
2019-01-14T14:19:29.892Z,6.06
2019-01-14T14:20:35.012Z,6.07
2019-01-14T14:21:39.993Z,6.07
2019-01-14T14:22:45.438Z,6.09
2019-01-14T14:23:50.735Z,6.10
2019-01-14T14:24:55.998Z,6.10
2019-01-14T14:26:01.615Z,6.09
2019-01-14T14:27:06.795Z,6.07
2019-01-14T14:28:11.788Z,6.06
2019-01-14T14:29:17.361Z,6.06
2019-01-14T14:30:48.254Z,6.04